Time;durP1;ratioP1;P1;durP2;ratioP2;P2;SDS_P1;SDS_P2;PMS_P1;PMS_P2;Temp;Humidity;BMP_temperature;BMP_pressure;BME280_temperature;BME280_humidity;BME280_pressure;Samples;Min_cycle;Max_cycle;Signal;HPM_P1;HPM_P2
2021/08/28 00:01:38;;;;;;;5.03;2.67;;;15.00;99.90;;;;;;5049835;28;20049;-81
2021/08/28 00:04:05;;;;;;;7.70;3.00;;;15.00;99.90;;;;;;5048975;28;20047;-82
2021/08/28 00:06:32;;;;;;;5.28;2.90;;;15.00;99.90;;;;;;5049785;28;20077;-83
2021/08/28 00:08:59;;;;;;;6.30;2.75;;;15.00;99.90;;;;;;5049166;28;20049;-82
2021/08/28 00:11:26;;;;;;;5.22;2.75;;;14.90;99.90;;;;;;5049744;28;20041;-83
2021/08/28 00:13:53;;;;;;;4.50;2.60;;;14.90;99.90;;;;;;5038630;28;20048;-83
2021/08/28 00:16:23;;;;;;;5.15;2.70;;;14.90;99.90;;;;;;5030766;28;20053;-82
2021/08/28 00:18:50;;;;;;;4.82;2.75;;;14.80;99.90;;;;;;5033048;28;20050;-83
2021/08/28 00:21:17;;;;;;;6.43;3.00;;;14.80;99.90;;;;;;5036158;28;20041;-82
2021/08/28 00:23:44;;;;;;;5.57;2.72;;;14.80;99.90;;;;;;5043630;28;20046;-82
2021/08/28 00:26:11;;;;;;;4.88;2.60;;;14.70;99.90;;;;;;5032966;28;20048;-82
2021/08/28 00:28:38;;;;;;;4.70;2.67;;;14.70;99.90;;;;;;5032969;28;20049;-82
2021/08/28 00:31:05;;;;;;;5.65;2.80;;;14.70;99.90;;;;;;5040860;28;20040;-83
2021/08/28 00:33:33;;;;;;;4.80;2.55;;;14.70;99.90;;;;;;5045194;28;20049;-83
2021/08/28 00:36:00;;;;;;;5.82;2.80;;;14.70;99.90;;;;;;5035714;28;20037;-83
2021/08/28 00:38:27;;;;;;;4.38;2.47;;;14.70;99.90;;;;;;5032796;28;20506;-83
2021/08/28 00:40:56;;;;;;;5.38;2.60;;;14.60;99.90;;;;;;5033893;28;20060;-84
2021/08/28 00:43:25;;;;;;;5.55;2.78;;;14.60;99.90;;;;;;5038354;28;20045;-83
2021/08/28 00:45:52;;;;;;;5.95;2.67;;;14.60;99.90;;;;;;5052606;28;20045;-85
2021/08/28 00:48:19;;;;;;;5.47;2.67;;;14.50;99.90;;;;;;5052695;28;20040;-84
2021/08/28 00:50:48;;;;;;;6.57;2.63;;;14.50;99.90;;;;;;5038272;28;20099;-85
2021/08/28 00:53:17;;;;;;;4.57;2.35;;;14.40;99.90;;;;;;5037496;28;20047;-85
2021/08/28 00:55:45;;;;;;;3.60;2.20;;;14.40;99.90;;;;;;5052226;28;20132;-84
2021/08/28 00:58:13;;;;;;;5.22;2.50;;;14.50;99.90;;;;;;5052080;28;20132;-84
2021/08/28 01:00:44;;;;;;;3.67;2.20;;;14.50;99.90;;;;;;5052417;28;20091;-82
2021/08/28 01:03:12;;;;;;;5.10;2.50;;;14.50;99.90;;;;;;5051964;28;20501;-84
2021/08/28 01:05:53;;;;;;;4.38;2.38;;;14.50;99.90;;;;;;5052415;28;20044;-83
2021/08/28 01:08:30;;;;;;;5.25;2.63;;;14.50;99.90;;;;;;5052501;28;20060;-83
2021/08/28 01:11:11;;;;;;;7.00;2.65;;;14.40;99.90;;;;;;5050017;28;20061;-83
2021/08/28 01:13:40;;;;;;;5.13;2.85;;;14.40;99.90;;;;;;5043093;28;20045;-83
2021/08/28 01:16:09;;;;;;;4.15;2.40;;;14.40;99.90;;;;;;5052634;28;20051;-83
2021/08/28 01:18:39;;;;;;;7.22;2.78;;;14.40;99.90;;;;;;5051478;28;20049;-83
2021/08/28 01:21:19;;;;;;;6.93;2.80;;;14.40;99.90;;;;;;5040915;28;20049;-82
2021/08/28 01:23:48;;;;;;;6.32;2.75;;;14.40;99.90;;;;;;5040789;28;20129;-84
2021/08/28 01:26:20;;;;;;;5.47;2.60;;;14.40;99.90;;;;;;5032608;28;20406;-84
2021/08/28 01:28:54;;;;;;;4.85;2.50;;;14.40;99.90;;;;;;5032350;28;20060;-85
2021/08/28 01:31:24;;;;;;;6.35;3.03;;;14.30;99.90;;;;;;5041324;28;20128;-84
2021/08/28 01:33:53;;;;;;;4.95;2.50;;;14.30;99.90;;;;;;5040396;28;20056;-84
2021/08/28 01:36:21;;;;;;;6.22;2.72;;;14.30;99.90;;;;;;5039069;28;20128;-84
2021/08/28 01:38:48;;;;;;;5.15;2.20;;;14.30;99.90;;;;;;5055363;28;20409;-85
2021/08/28 01:41:16;;;;;;;3.65;2.17;;;14.20;99.90;;;;;;5055902;28;20053;-84
2021/08/28 01:43:43;;;;;;;4.07;2.17;;;14.20;99.90;;;;;;5054156;28;20049;-84
2021/08/28 01:46:10;;;;;;;4.40;2.47;;;14.20;99.90;;;;;;5055804;28;20133;-84
2021/08/28 01:48:39;;;;;;;4.32;2.50;;;14.20;99.90;;;;;;5054046;28;20047;-83
2021/08/28 01:51:06;;;;;;;7.22;2.60;;;14.20;99.90;;;;;;5055910;28;20055;-84
2021/08/28 01:53:33;;;;;;;4.32;2.20;;;14.20;99.90;;;;;;5042345;28;20045;-83
2021/08/28 01:56:01;;;;;;;6.78;2.35;;;14.20;99.90;;;;;;5039026;28;20045;-83
2021/08/28 01:58:30;;;;;;;5.93;3.00;;;14.20;99.90;;;;;;5047074;28;20045;-83
2021/08/28 02:00:58;;;;;;;4.40;2.50;;;14.20;99.90;;;;;;5035562;28;20057;-82
2021/08/28 02:03:25;;;;;;;4.20;2.08;;;14.20;99.90;;;;;;5037327;28;20601;-82
2021/08/28 02:06:03;;;;;;;5.05;2.50;;;14.20;99.90;;;;;;5035651;28;20046;-83
2021/08/28 02:08:37;;;;;;;4.22;2.03;;;14.20;99.90;;;;;;5035296;28;20088;-82
2021/08/28 02:11:10;;;;;;;;;;;14.20;99.90;;;;;;5044692;28;20060;-82
2021/08/28 02:13:44;;;;;;;3.65;1.77;;;14.20;99.90;;;;;;5042186;28;20008;-83
2021/08/28 02:16:16;;;;;;;4.07;2.10;;;14.20;99.90;;;;;;5035519;28;20046;-83
2021/08/28 02:18:49;;;;;;;6.00;1.88;;;14.20;99.90;;;;;;5055205;28;20049;-83
2021/08/28 02:21:20;;;;;;;3.80;1.88;;;14.30;99.90;;;;;;5055120;28;20055;-83
2021/08/28 02:23:51;;;;;;;5.68;2.15;;;14.30;99.90;;;;;;5040831;28;20128;-83
2021/08/28 02:26:22;;;;;;;3.85;1.98;;;14.30;99.90;;;;;;5035160;28;20053;-83
2021/08/28 02:28:52;;;;;;;4.03;2.08;;;14.30;99.90;;;;;;5048716;28;20052;-83
2021/08/28 02:31:26;;;;;;;4.60;2.10;;;14.30;99.90;;;;;;5054455;28;20044;-81
2021/08/28 02:33:54;;;;;;;4.68;2.13;;;14.30;99.90;;;;;;5053623;28;20394;-83
2021/08/28 02:36:22;;;;;;;4.35;1.88;;;14.40;99.90;;;;;;5054743;28;20060;-83
2021/08/28 02:38:51;;;;;;;5.05;2.10;;;14.40;99.90;;;;;;5054807;28;20063;-83
2021/08/28 02:41:19;;;;;;;4.57;2.10;;;14.30;99.90;;;;;;5054872;28;20059;-85
2021/08/28 02:43:47;;;;;;;4.45;2.25;;;14.30;99.90;;;;;;5040874;28;20505;-84
2021/08/28 02:46:16;;;;;;;4.75;1.90;;;14.30;99.90;;;;;;5035629;28;20376;-83
2021/08/28 02:48:44;;;;;;;6.50;2.10;;;14.40;99.90;;;;;;5034733;28;20049;-83
2021/08/28 02:51:12;;;;;;;4.03;1.90;;;14.40;99.90;;;;;;5043845;28;20037;-82
2021/08/28 02:53:45;;;;;;;4.45;2.10;;;14.40;99.90;;;;;;5042551;28;20048;-83
2021/08/28 02:56:13;;;;;;;4.00;2.30;;;14.40;99.90;;;;;;5034694;28;20049;-84
2021/08/28 02:58:41;;;;;;;5.07;2.25;;;14.40;99.90;;;;;;5034731;28;20042;-84
2021/08/28 03:01:09;;;;;;;4.18;2.25;;;14.40;99.90;;;;;;5044030;28;20055;-82
2021/08/28 03:03:39;;;;;;;4.22;2.45;;;14.30;99.90;;;;;;5048973;28;20455;-83
2021/08/28 03:06:06;;;;;;;5.53;2.63;;;14.30;99.90;;;;;;5051621;28;20508;-83
2021/08/28 03:08:35;;;;;;;5.55;2.50;;;14.30;99.90;;;;;;5050165;28;20045;-82
2021/08/28 03:11:04;;;;;;;5.18;2.30;;;14.30;99.90;;;;;;5051223;28;20552;-83
2021/08/28 03:13:32;;;;;;;4.40;2.15;;;14.20;99.90;;;;;;5049263;28;20051;-82
2021/08/28 03:16:00;;;;;;;5.00;2.40;;;14.20;99.90;;;;;;5043153;28;20055;-82
2021/08/28 03:18:29;;;;;;;3.63;2.20;;;14.10;99.90;;;;;;5034464;28;20378;-83
2021/08/28 03:20:58;;;;;;;4.65;2.10;;;14.20;99.90;;;;;;5050069;28;20049;-82
2021/08/28 03:23:30;;;;;;;6.13;2.85;;;14.10;99.90;;;;;;5038839;28;20046;-83
2021/08/28 03:26:00;;;;;;;7.38;2.53;;;14.10;99.90;;;;;;5044377;28;20057;-83
2021/08/28 03:28:29;;;;;;;4.53;2.30;;;14.10;99.90;;;;;;5038183;28;20814;-82
2021/08/28 03:30:57;;;;;;;5.03;2.40;;;14.10;99.90;;;;;;5030554;28;20409;-82
2021/08/28 03:33:24;;;;;;;4.20;2.30;;;14.10;99.90;;;;;;5042884;28;20045;-82
2021/08/28 03:35:52;;;;;;;5.78;2.72;;;14.10;99.90;;;;;;5050312;28;20055;-83
2021/08/28 03:38:19;;;;;;;6.70;3.22;;;14.00;99.90;;;;;;5050116;28;20053;-83
2021/08/28 03:40:47;;;;;;;5.88;2.97;;;14.10;99.90;;;;;;5050029;28;20045;-83
2021/08/28 03:43:14;;;;;;;6.53;2.47;;;14.10;99.90;;;;;;5048063;28;20045;-83
2021/08/28 03:45:43;;;;;;;5.70;3.00;;;14.10;99.90;;;;;;5050228;28;20587;-82
2021/08/28 03:48:10;;;;;;;5.43;2.70;;;14.10;99.90;;;;;;5031312;28;20041;-83
2021/08/28 03:50:37;;;;;;;5.25;2.70;;;14.10;99.90;;;;;;5035885;28;20045;-84
2021/08/28 03:53:05;;;;;;;5.32;2.58;;;14.10;99.90;;;;;;5040327;28;20049;-84
2021/08/28 03:55:32;;;;;;;5.50;2.90;;;14.10;99.90;;;;;;5029988;28;20060;-85
2021/08/28 03:57:59;;;;;;;5.18;2.90;;;14.10;99.90;;;;;;5029548;28;20498;-84
2021/08/28 04:00:26;;;;;;;5.95;2.85;;;14.20;99.90;;;;;;5029925;28;20051;-85
2021/08/28 04:02:55;;;;;;;6.10;3.13;;;14.10;99.90;;;;;;5033573;28;20132;-85
2021/08/28 04:05:22;;;;;;;5.57;3.28;;;14.10;99.90;;;;;;5042729;28;20581;-83
2021/08/28 04:07:49;;;;;;;7.00;4.07;;;14.10;99.90;;;;;;5053163;28;20049;-84
2021/08/28 04:10:16;;;;;;;7.63;3.67;;;14.10;99.90;;;;;;5053059;28;20049;-84
2021/08/28 04:12:43;;;;;;;4.72;2.80;;;14.10;99.90;;;;;;5052452;28;20049;-84
2021/08/28 04:15:11;;;;;;;5.10;2.45;;;14.10;99.90;;;;;;5053203;28;20041;-84
2021/08/28 04:17:39;;;;;;;4.95;3.00;;;14.10;99.90;;;;;;5044772;28;20052;-83
2021/08/28 04:20:09;;;;;;;5.03;3.00;;;14.10;99.90;;;;;;5032975;28;20050;-85
2021/08/28 04:22:36;;;;;;;4.93;2.95;;;14.10;99.90;;;;;;5037532;28;20044;-84
2021/08/28 04:25:03;;;;;;;4.43;2.65;;;14.10;99.90;;;;;;5039272;28;20406;-83
2021/08/28 04:27:30;;;;;;;5.72;3.13;;;14.10;99.90;;;;;;5034845;28;20072;-84
2021/08/28 04:29:57;;;;;;;6.32;3.22;;;14.10;99.90;;;;;;5052853;28;20552;-83
2021/08/28 04:32:24;;;;;;;5.57;3.08;;;14.10;99.90;;;;;;5052150;28;20048;-83
2021/08/28 04:34:51;;;;;;;7.38;3.20;;;14.10;99.90;;;;;;5052840;28;20048;-82
2021/08/28 04:37:19;;;;;;;4.88;3.20;;;14.10;99.90;;;;;;5034733;28;20487;-84
2021/08/28 04:39:47;;;;;;;5.43;3.20;;;14.10;99.90;;;;;;5032719;28;20050;-84
2021/08/28 04:42:14;;;;;;;8.95;3.90;;;14.10;99.90;;;;;;5047565;28;20045;-84
2021/08/28 04:44:41;;;;;;;6.75;4.20;;;14.10;99.90;;;;;;5033039;28;20052;-83
2021/08/28 04:47:08;;;;;;;10.45;4.03;;;14.10;99.90;;;;;;5032670;28;20049;-84
2021/08/28 04:49:35;;;;;;;7.82;4.40;;;14.10;99.90;;;;;;5032735;28;20053;-84
2021/08/28 04:52:02;;;;;;;6.93;4.30;;;14.10;99.90;;;;;;5046495;28;20402;-83
2021/08/28 04:54:31;;;;;;;7.28;4.20;;;14.10;99.90;;;;;;5033020;28;20125;-79
2021/08/28 04:56:58;;;;;;;7.13;4.82;;;14.00;99.90;;;;;;5047432;28;20094;-80
2021/08/28 04:59:26;;;;;;;8.90;4.20;;;14.10;99.90;;;;;;5052602;28;20462;-79
2021/08/28 05:01:55;;;;;;;9.18;4.78;;;14.00;99.90;;;;;;5051205;28;20490;-79
2021/08/28 05:04:22;;;;;;;8.40;4.50;;;14.00;99.90;;;;;;5036903;28;20049;-82
2021/08/28 05:06:49;;;;;;;9.38;5.65;;;14.00;99.90;;;;;;5052555;28;20056;-81
2021/08/28 05:09:16;;;;;;;8.40;4.95;;;14.00;99.90;;;;;;5043527;28;20045;-81
2021/08/28 05:11:44;;;;;;;8.20;4.60;;;14.00;99.90;;;;;;5051634;28;20053;-82
2021/08/28 05:14:11;;;;;;;11.40;6.57;;;14.00;99.90;;;;;;5046046;28;20046;-91
2021/08/28 05:16:38;;;;;;;9.43;6.30;;;14.00;99.90;;;;;;5048683;28;20059;-93
2021/08/28 05:19:05;;;;;;;7.70;5.50;;;14.00;99.90;;;;;;5057994;28;20045;-92
2021/08/28 05:21:32;;;;;;;9.73;6.10;;;14.00;99.90;;;;;;5056918;28;20049;-91
2021/08/28 05:23:59;;;;;;;8.63;6.22;;;14.00;99.90;;;;;;5038056;28;20051;-92
2021/08/28 05:26:27;;;;;;;12.10;6.65;;;14.00;99.90;;;;;;5037845;28;20128;-89
2021/08/28 05:28:58;;;;;;;9.35;6.65;;;14.00;99.90;;;;;;5048300;28;20468;-91
2021/08/28 05:31:25;;;;;;;9.45;6.50;;;14.00;99.90;;;;;;5057375;28;20409;-90
2021/08/28 05:33:52;;;;;;;9.20;6.20;;;14.00;99.90;;;;;;5057003;28;20131;-91
2021/08/28 05:36:19;;;;;;;9.00;6.53;;;14.00;99.90;;;;;;5057349;28;20044;-89
2021/08/28 05:38:48;;;;;;;12.00;7.35;;;14.10;99.90;;;;;;5057228;28;20045;-91
2021/08/28 05:41:15;;;;;;;10.85;7.07;;;14.10;99.90;;;;;;5057374;28;20143;-91
2021/08/28 05:43:42;;;;;;;12.20;8.63;;;14.10;99.90;;;;;;5057606;28;20048;-91
2021/08/28 05:46:10;;;;;;;12.75;9.38;;;14.10;99.90;;;;;;5057239;28;20052;-92
2021/08/28 05:48:37;;;;;;;12.65;8.50;;;14.10;99.90;;;;;;5056173;28;20055;-81
2021/08/28 05:51:04;;;;;;;11.25;8.05;;;14.10;99.90;;;;;;5055355;28;20055;-90
2021/08/28 05:53:31;;;;;;;11.82;8.23;;;14.20;99.90;;;;;;5057162;28;20100;-92
2021/08/28 05:55:58;;;;;;;10.45;7.38;;;14.20;99.90;;;;;;5057155;28;20045;-90
2021/08/28 05:58:25;;;;;;;11.13;8.20;;;14.20;99.90;;;;;;5057031;28;20051;-87
2021/08/28 06:00:52;;;;;;;14.80;8.70;;;14.20;99.90;;;;;;5057072;28;20044;-91
2021/08/28 06:03:21;;;;;;;14.70;10.55;;;14.30;99.90;;;;;;5056710;28;20048;-88
2021/08/28 06:05:48;;;;;;;14.73;11.55;;;14.30;99.90;;;;;;5049569;28;20080;-83
2021/08/28 06:08:15;;;;;;;14.40;9.60;;;14.40;99.90;;;;;;5041281;28;20077;-83
2021/08/28 06:10:42;;;;;;;13.48;9.40;;;14.30;99.90;;;;;;5035359;28;20049;-84
2021/08/28 06:13:09;;;;;;;13.60;9.45;;;14.40;99.90;;;;;;5035452;28;20056;-85
2021/08/28 06:15:37;;;;;;;12.40;9.32;;;14.50;99.90;;;;;;5035646;28;20045;-85
2021/08/28 06:18:04;;;;;;;12.88;9.77;;;14.40;99.90;;;;;;5039504;28;20124;-85
2021/08/28 06:20:32;;;;;;;14.18;9.90;;;14.50;99.90;;;;;;5047925;28;20053;-84
2021/08/28 06:22:59;;;;;;;12.48;9.60;;;14.50;99.90;;;;;;5055029;28;20135;-84
2021/08/28 06:25:27;;;;;;;15.02;10.40;;;14.50;99.90;;;;;;5054278;28;20063;-85
2021/08/28 06:27:53;;;;;;;13.38;9.07;;;14.50;99.90;;;;;;5053766;28;20129;-84
2021/08/28 06:30:21;;;;;;;12.07;9.48;;;14.60;99.90;;;;;;5054726;28;20045;-82
2021/08/28 06:32:48;;;;;;;12.70;9.10;;;14.50;99.90;;;;;;5054953;28;20056;-82
2021/08/28 06:35:15;;;;;;;13.73;10.63;;;14.50;99.90;;;;;;5054364;28;20052;-83
2021/08/28 06:37:43;;;;;;;16.23;11.25;;;14.60;99.90;;;;;;5052368;28;20410;-82
2021/08/28 06:40:11;;;;;;;14.45;10.65;;;14.60;99.90;;;;;;5034813;28;20388;-81
2021/08/28 06:42:38;;;;;;;17.55;11.63;;;14.60;99.90;;;;;;5034851;28;20488;-80
2021/08/28 06:45:07;;;;;;;15.07;10.80;;;14.60;99.90;;;;;;5043151;28;20049;-81
2021/08/28 06:47:34;;;;;;;12.88;9.75;;;14.60;99.90;;;;;;5047025;28;20041;-82
2021/08/28 06:50:01;;;;;;;13.73;10.50;;;14.60;99.90;;;;;;5046175;28;20045;-82
2021/08/28 06:52:28;;;;;;;13.02;9.77;;;14.60;99.90;;;;;;5049577;28;20087;-81
2021/08/28 06:54:56;;;;;;;11.63;8.43;;;14.70;99.90;;;;;;5048745;28;20051;-84
2021/08/28 06:57:23;;;;;;;14.93;10.70;;;14.70;99.90;;;;;;5045518;28;20048;-81
2021/08/28 06:59:50;;;;;;;12.48;9.25;;;14.80;99.90;;;;;;5048148;28;20513;-82
2021/08/28 07:02:18;;;;;;;11.20;8.60;;;14.80;99.90;;;;;;5048546;28;20144;-82
2021/08/28 07:04:45;;;;;;;13.85;9.88;;;14.80;99.90;;;;;;5051351;28;20496;-82
2021/08/28 07:07:12;;;;;;;12.98;9.73;;;14.80;99.90;;;;;;5047793;28;20082;-81
2021/08/28 07:09:39;;;;;;;10.68;7.60;;;14.80;99.90;;;;;;5053401;28;20080;-81
2021/08/28 07:12:09;;;;;;;10.05;7.57;;;14.80;99.90;;;;;;5049347;28;20124;-82
2021/08/28 07:14:37;;;;;;;10.45;6.82;;;14.80;99.90;;;;;;5048410;28;20408;-81
2021/08/28 07:17:04;;;;;;;8.65;6.57;;;14.80;99.90;;;;;;5045997;28;20041;-85
2021/08/28 07:19:31;;;;;;;9.82;7.13;;;14.80;99.90;;;;;;5033870;28;20042;-80
2021/08/28 07:21:58;;;;;;;9.93;7.20;;;14.90;99.90;;;;;;5032243;28;20050;-80
2021/08/28 07:24:25;;;;;;;9.80;6.78;;;14.90;99.90;;;;;;5034257;28;20132;-79
2021/08/28 07:26:52;;;;;;;8.35;6.28;;;14.90;99.90;;;;;;5039981;28;20051;-81
2021/08/28 07:29:21;;;;;;;8.30;5.35;;;14.90;99.90;;;;;;5040524;28;20046;-76
2021/08/28 07:31:48;;;;;;;7.80;5.53;;;14.90;99.90;;;;;;5053548;28;20508;-77
2021/08/28 07:34:15;;;;;;;7.32;5.50;;;15.00;99.90;;;;;;5043946;28;20175;-79
2021/08/28 07:36:42;;;;;;;8.27;4.90;;;15.00;99.90;;;;;;5052459;28;20473;-79
2021/08/28 07:39:09;;;;;;;6.13;4.22;;;15.00;99.90;;;;;;5040885;28;20059;-79
2021/08/28 07:41:36;;;;;;;5.40;4.00;;;15.10;99.90;;;;;;5048906;28;20052;-79
2021/08/28 07:44:03;;;;;;;6.47;4.70;;;15.20;99.90;;;;;;5051437;28;20128;-82
2021/08/28 07:46:32;;;;;;;8.60;4.90;;;15.30;99.90;;;;;;5039109;28;20052;-82
2021/08/28 07:48:59;;;;;;;6.60;4.18;;;15.30;99.90;;;;;;5033281;28;20125;-81
2021/08/28 07:51:26;;;;;;;6.28;4.60;;;15.40;99.90;;;;;;5033731;28;20057;-87
2021/08/28 07:53:53;;;;;;;10.43;4.80;;;15.50;99.90;;;;;;5046341;28;20049;-84
2021/08/28 07:56:20;;;;;;;7.57;4.38;;;15.50;99.90;;;;;;5042872;28;20041;-85
2021/08/28 07:58:47;;;;;;;5.47;3.40;;;15.60;99.90;;;;;;5049881;28;20409;-85
2021/08/28 08:01:14;;;;;;;5.60;4.22;;;15.60;99.90;;;;;;5033493;28;20053;-90
2021/08/28 08:03:42;;;;;;;5.70;3.53;;;15.70;99.90;;;;;;5049704;28;20398;-85
2021/08/28 08:06:10;;;;;;;4.85;3.20;;;15.70;99.90;;;;;;5053140;28;20486;-85
2021/08/28 08:08:37;;;;;;;5.38;3.40;;;15.80;99.90;;;;;;5048043;28;20461;-86
2021/08/28 08:11:04;;;;;;;4.57;2.95;;;15.90;99.90;;;;;;5050060;28;20392;-84
2021/08/28 08:13:31;;;;;;;5.05;3.08;;;15.90;99.90;;;;;;5052893;28;20127;-85
2021/08/28 08:15:58;;;;;;;4.93;3.00;;;16.00;99.90;;;;;;5041268;28;20123;-86
2021/08/28 08:18:25;;;;;;;4.05;2.83;;;16.00;99.90;;;;;;5037977;28;20049;-83
2021/08/28 08:20:53;;;;;;;5.80;3.40;;;16.00;99.90;;;;;;5047178;28;20040;-86
2021/08/28 08:23:20;;;;;;;6.03;3.17;;;16.00;99.90;;;;;;5053291;28;20053;-86
2021/08/28 08:25:47;;;;;;;3.92;2.60;;;16.00;99.90;;;;;;5053058;28;20044;-85
2021/08/28 08:28:15;;;;;;;5.07;2.90;;;16.00;99.90;;;;;;5053030;28;20204;-86
2021/08/28 08:30:42;;;;;;;4.90;2.83;;;16.10;99.90;;;;;;5049925;28;20120;-84
2021/08/28 08:33:09;;;;;;;5.82;3.20;;;16.20;99.90;;;;;;5038927;28;20051;-86
2021/08/28 08:35:36;;;;;;;4.50;3.10;;;16.20;99.90;;;;;;5035494;28;20053;-86
2021/08/28 08:38:05;;;;;;;4.88;2.78;;;16.30;99.90;;;;;;5041421;28;20136;-85
2021/08/28 08:40:32;;;;;;;5.30;2.90;;;16.40;99.90;;;;;;5036929;28;20080;-88
2021/08/28 08:43:03;;;;;;;4.63;3.05;;;16.40;99.90;;;;;;5049262;28;20056;-86
2021/08/28 08:45:30;;;;;;;4.68;2.40;;;16.40;99.70;;;;;;5055572;28;20044;-85
2021/08/28 08:47:58;;;;;;;4.50;2.05;;;16.40;99.60;;;;;;5045941;28;20076;-85
2021/08/28 08:50:26;;;;;;;3.42;1.80;;;16.40;99.00;;;;;;5035978;28;20049;-84
2021/08/28 08:52:57;;;;;;;4.18;1.98;;;16.40;98.60;;;;;;5038115;28;20048;-87
2021/08/28 08:55:26;;;;;;;4.13;2.13;;;16.40;98.60;;;;;;5048736;28;20128;-87
2021/08/28 08:57:53;;;;;;;3.28;1.75;;;16.30;98.60;;;;;;5052255;28;20047;-87
2021/08/28 09:00:20;;;;;;;3.28;1.67;;;16.30;98.70;;;;;;5046848;28;20060;-85
2021/08/28 09:02:47;;;;;;;3.65;2.00;;;16.30;98.70;;;;;;5050553;28;20490;-86
2021/08/28 09:05:14;;;;;;;4.57;2.13;;;16.40;98.60;;;;;;5041081;28;20050;-85
2021/08/28 09:07:41;;;;;;;4.03;1.70;;;16.40;98.40;;;;;;5043982;28;20056;-89
2021/08/28 09:10:12;;;;;;;3.28;1.77;;;16.40;98.70;;;;;;5038017;28;20055;-86
2021/08/28 09:12:42;;;;;;;3.63;2.10;;;16.50;98.80;;;;;;5043707;28;20096;-86
2021/08/28 09:15:12;;;;;;;4.50;2.63;;;16.60;98.70;;;;;;5052606;28;20055;-88
2021/08/28 09:17:40;;;;;;;4.28;2.65;;;16.70;98.60;;;;;;5055492;28;20482;-85
2021/08/28 09:20:20;;;;;;;4.00;2.30;;;16.70;98.60;;;;;;5052341;28;20464;-85
2021/08/28 09:22:47;;;;;;;3.67;1.90;;;16.70;98.50;;;;;;5039321;28;20052;-86
2021/08/28 09:25:23;;;;;;;3.65;2.25;;;16.70;98.50;;;;;;5055126;28;20148;-86
2021/08/28 09:27:51;;;;;;;3.30;1.73;;;16.80;98.40;;;;;;5054467;28;20053;-85
2021/08/28 09:30:25;;;;;;;3.40;1.95;;;16.70;98.60;;;;;;5055749;28;20080;-89
2021/08/28 09:32:56;;;;;;;2.92;1.40;;;16.70;98.40;;;;;;5048458;28;20052;-90
2021/08/28 09:35:27;;;;;;;3.13;1.55;;;16.80;98.50;;;;;;5048814;28;20088;-85
2021/08/28 09:37:57;;;;;;;2.95;1.27;;;16.80;98.10;;;;;;5047910;28;20055;-86
2021/08/28 09:40:27;;;;;;;1.95;1.05;;;16.80;97.60;;;;;;5044512;28;20091;-80
2021/08/28 09:42:59;;;;;;;2.50;1.33;;;16.80;97.20;;;;;;5054916;28;20135;-80
2021/08/28 09:45:27;;;;;;;2.60;1.02;;;16.80;96.80;;;;;;5054022;28;20148;-79
2021/08/28 09:47:57;;;;;;;2.45;1.00;;;16.90;96.90;;;;;;5050200;28;20036;-80
2021/08/28 09:50:30;;;;;;;2.67;1.10;;;17.00;96.90;;;;;;5053938;28;20051;-79
2021/08/28 09:53:04;;;;;;;3.67;1.42;;;17.10;97.10;;;;;;5042060;28;20041;-79
2021/08/28 09:55:33;;;;;;;2.88;1.05;;;17.20;97.30;;;;;;5043703;28;20501;-79
2021/08/28 09:58:03;;;;;;;2.33;0.98;;;17.10;95.90;;;;;;5047482;28;20501;-80
2021/08/28 10:00:32;;;;;;;2.22;1.10;;;17.10;95.50;;;;;;5051562;28;20628;-84
2021/08/28 10:03:04;;;;;;;2.88;1.38;;;17.10;95.60;;;;;;5053270;28;20045;-84
2021/08/28 10:05:33;;;;;;;3.05;1.00;;;17.10;95.60;;;;;;5051555;28;20049;-82
2021/08/28 10:08:03;;;;;;;2.47;1.27;;;17.10;96.20;;;;;;5052703;28;20556;-82
2021/08/28 10:10:32;;;;;;;2.38;1.02;;;17.00;96.10;;;;;;5052315;28;20053;-83
2021/08/28 10:13:03;;;;;;;2.80;1.30;;;17.00;96.30;;;;;;5052137;28;20049;-81
2021/08/28 10:15:32;;;;;;;2.13;0.93;;;17.00;96.60;;;;;;5051973;28;20148;-81
2021/08/28 10:18:01;;;;;;;2.65;1.15;;;17.00;96.50;;;;;;5051366;28;20049;-83
2021/08/28 10:20:30;;;;;;;2.67;0.90;;;16.90;96.70;;;;;;5051222;28;20049;-84
2021/08/28 10:23:01;;;;;;;2.42;1.23;;;16.80;96.80;;;;;;5051145;28;20049;-84
2021/08/28 10:25:32;;;;;;;2.63;1.10;;;16.80;96.80;;;;;;5052005;28;20384;-86
2021/08/28 10:28:02;;;;;;;2.47;1.13;;;16.80;97.20;;;;;;5045979;28;20052;-80
2021/08/28 10:30:29;;;;;;;2.90;1.02;;;16.70;96.70;;;;;;5039818;28;20041;-81
2021/08/28 10:32:57;;;;;;;2.42;1.30;;;16.60;97.10;;;;;;5049289;28;20048;-81
2021/08/28 10:35:24;;;;;;;3.65;1.30;;;16.60;97.50;;;;;;5050292;28;20045;-81
2021/08/28 10:37:51;;;;;;;2.70;1.40;;;16.60;97.60;;;;;;5048412;28;20064;-81
2021/08/28 10:40:23;;;;;;;2.70;1.20;;;16.50;98.20;;;;;;5042950;28;20516;-81
2021/08/28 10:42:53;;;;;;;2.67;1.40;;;16.50;98.40;;;;;;5050456;28;20139;-79
2021/08/28 10:45:29;;;;;;;2.80;1.15;;;16.50;98.50;;;;;;5048666;28;20059;-79
2021/08/28 10:48:00;;;;;;;3.67;1.50;;;16.40;98.70;;;;;;5046388;28;20116;-86
2021/08/28 10:50:33;;;;;;;3.40;1.50;;;16.40;98.40;;;;;;5047488;28;20053;-85
2021/08/28 10:53:01;;;;;;;3.40;1.40;;;16.30;98.40;;;;;;5036912;28;20045;-90
2021/08/28 10:55:37;;;;;;;2.95;1.40;;;16.30;98.70;;;;;;5052013;28;20045;-92
2021/08/28 10:58:13;;;;;;;3.17;1.52;;;16.30;98.80;;;;;;5054910;28;20041;-89
2021/08/28 11:00:42;;;;;;;3.05;1.50;;;16.30;98.80;;;;;;5049530;28;20098;-88
2021/08/28 11:03:26;;;;;;;3.30;1.50;;;16.30;99.10;;;;;;5046901;28;20045;-88
2021/08/28 11:06:27;;;;;;;3.40;1.50;;;16.30;99.30;;;;;;5052446;28;20045;-87
2021/08/28 11:08:57;;;;;;;2.95;1.45;;;16.30;99.50;;;;;;5050372;28;20041;-86
2021/08/28 11:11:29;;;;;;;3.25;1.58;;;16.20;99.60;;;;;;5054391;28;20048;-87
2021/08/28 11:14:01;;;;;;;4.43;2.30;;;16.30;99.80;;;;;;5048739;28;20052;-88
2021/08/28 11:16:54;;;;;;;5.57;3.22;;;16.30;99.90;;;;;;5056005;28;20088;-88
2021/08/28 11:19:49;;;;;;;5.18;2.70;;;16.30;99.90;;;;;;5053705;28;20045;-85
2021/08/28 11:22:24;;;;;;;4.68;2.50;;;16.40;99.90;;;;;;5037603;28;20041;-89
2021/08/28 11:25:00;;;;;;;5.03;2.60;;;16.50;99.90;;;;;;5052777;28;20101;-89
2021/08/28 11:27:43;;;;;;;4.18;1.70;;;16.60;99.90;;;;;;5062233;28;20055;-89
2021/08/28 11:30:12;;;;;;;3.95;1.50;;;16.70;99.90;;;;;;5056621;28;20112;-89
2021/08/28 11:32:41;;;;;;;2.45;1.10;;;16.80;99.90;;;;;;5048357;28;20081;-90
2021/08/28 11:35:09;;;;;;;2.58;1.10;;;16.80;99.90;;;;;;5056211;28;20045;-88
2021/08/28 11:37:43;;;;;;;1.95;0.95;;;16.90;99.50;;;;;;5060324;28;20100;-90
2021/08/28 11:40:31;;;;;;;1.60;0.90;;;17.00;98.90;;;;;;5058021;28;20073;-91
2021/08/28 11:42:59;;;;;;;2.40;1.08;;;17.10;99.00;;;;;;5059176;28;20127;-90
2021/08/28 11:45:35;;;;;;;2.30;1.20;;;17.20;99.20;;;;;;5045848;28;20068;-89
2021/08/28 11:48:11;;;;;;;2.78;1.42;;;17.40;99.40;;;;;;5034988;28;20049;-88
2021/08/28 11:50:40;;;;;;;3.60;1.50;;;17.60;98.60;;;;;;5050224;28;20084;-90
2021/08/28 11:53:07;;;;;;;3.08;1.80;;;17.80;98.40;;;;;;5056905;28;20049;-91
2021/08/28 11:55:36;;;;;;;2.85;1.30;;;18.00;97.30;;;;;;5047388;28;20119;-92
2021/08/28 11:58:06;;;;;;;3.42;1.40;;;18.10;96.90;;;;;;5045925;28;20060;-89
2021/08/28 12:00:35;;;;;;;3.05;1.30;;;18.20;96.90;;;;;;5054694;28;20467;-87
2021/08/28 12:03:07;;;;;;;2.60;1.08;;;18.20;96.70;;;;;;5042669;28;20053;-87
2021/08/28 12:05:36;;;;;;;2.70;1.20;;;18.20;97.00;;;;;;5035153;28;20057;-87
2021/08/28 12:08:04;;;;;;;2.25;1.17;;;18.30;97.00;;;;;;5044922;28;20051;-88
2021/08/28 12:10:32;;;;;;;1.90;1.08;;;18.40;97.10;;;;;;5053831;28;20123;-88
2021/08/28 12:13:03;;;;;;;2.47;1.00;;;18.50;96.80;;;;;;5053306;28;20079;-89
2021/08/28 12:15:31;;;;;;;2.10;1.00;;;18.60;96.30;;;;;;5053724;28;20121;-85
2021/08/28 12:17:59;;;;;;;3.08;1.00;;;18.50;96.40;;;;;;5054843;28;20045;-90
2021/08/28 12:20:30;;;;;;;2.75;1.10;;;18.40;95.80;;;;;;5054110;28;20095;-88
2021/08/28 12:23:01;;;;;;;2.78;1.08;;;18.50;95.50;;;;;;5053482;28;20410;-88
2021/08/28 12:25:30;;;;;;;1.90;0.80;;;18.40;95.70;;;;;;5053446;28;20399;-87
2021/08/28 12:27:57;;;;;;;1.50;0.82;;;18.40;96.00;;;;;;5044076;28;20236;-88
2021/08/28 12:30:24;;;;;;;1.73;0.80;;;18.40;95.80;;;;;;5036550;28;20059;-88
2021/08/28 12:32:51;;;;;;;1.77;0.75;;;18.40;94.30;;;;;;5051798;28;20478;-87
2021/08/28 12:35:19;;;;;;;1.60;0.70;;;18.30;94.30;;;;;;5053184;28;20049;-90
2021/08/28 12:37:47;;;;;;;2.10;0.73;;;18.30;94.50;;;;;;5050562;28;20053;-90
2021/08/28 12:40:15;;;;;;;2.05;0.77;;;18.30;94.10;;;;;;5051949;28;20048;-89
2021/08/28 12:42:45;;;;;;;1.73;0.80;;;18.20;94.00;;;;;;5040840;28;20582;-90
2021/08/28 12:45:18;;;;;;;2.03;0.80;;;18.20;93.40;;;;;;5034844;28;20046;-89
2021/08/28 12:47:47;;;;;;;10.55;4.85;;;18.10;93.10;;;;;;5035977;28;20551;-88
2021/08/28 12:50:17;;;;;;;3.50;1.58;;;18.00;92.90;;;;;;5049473;28;20413;-82
2021/08/28 12:52:48;;;;;;;2.40;0.95;;;17.90;93.10;;;;;;5050457;28;20044;-79
2021/08/28 12:55:22;;;;;;;2.22;1.10;;;17.80;92.90;;;;;;5050709;28;20048;-83